»·PEaware :: N762BB KDRO-KABQ

N762BB :: KDRO-KABQ

FLIGHT INFORMATION

Flight Status: Arrived
Operator: Privately registered:
United States
More flights under this callsign
Pilot: Slade E. (12022)
Aircraft: BEECH AIRCRAFT A90-E90 KING AIR
(BE9L)
More flights by this aircraft type
Origin: KDRO Durango-La Plata Co
United States
Destination: KABQ Albuquerque Intl Sunport
United States
More flights between these airports :: More routes between these airports
Route: DRO MARKE V361 RSK V187 TANER CURLY3
File this flight plan on PilotEdge
Remarks: ODP RWY 21
Altitude:
(Current/Filed)
15,000ft
Speed:
(Current/Filed)
215kts
Departed: 26-Oct-20 03:55 PM
Arrived: 26-Oct-20 04:44 PM
Distance/Time
Traveled:
138nm/0:49
Distance/Time
To Go:
Arrived

Flight Plot

Page will automatically refresh every two minutes.

Flight plan parsing failed; only flown route is shown


Map Options




Map Legend


Flown Route
Filed Route
Departure Airport
Arrival Airport
Navaid (VOR, NDB)
Fix

Horizontal Profiles

Position Reports

Time Latitude Longitude Heading Altitude Ground
Speed
26-Oct-20 15:37 37.153381 -107.754706 306 6688ft 0kts
26-Oct-20 15:38 37.153381 -107.754707 306 6688ft 0kts
26-Oct-20 15:39 37.153381 -107.754707 306 6688ft 0kts
26-Oct-20 15:40 37.153381 -107.754707 306 6688ft 0kts
26-Oct-20 15:41 37.153381 -107.754707 306 6688ft 0kts
26-Oct-20 15:42 37.153381 -107.754707 306 6688ft 0kts
26-Oct-20 15:43 37.153381 -107.754707 306 6688ft 0kts
26-Oct-20 15:44 37.153381 -107.754707 306 6688ft 0kts
26-Oct-20 15:45 37.153381 -107.754707 306 6688ft 0kts
26-Oct-20 15:46 37.153381 -107.754707 306 6688ft 0kts
26-Oct-20 15:47 37.153381 -107.754707 306 6688ft 0kts
26-Oct-20 15:48 37.153381 -107.754707 306 6688ft 0kts
26-Oct-20 15:49 37.153013 -107.754187 60 6688ft 10kts
26-Oct-20 15:50 37.157036 -107.750222 36 6688ft 23kts
26-Oct-20 15:51 37.161070 -107.746384 36 6688ft 0kts
26-Oct-20 15:52 37.161070 -107.746384 36 6688ft 0kts
26-Oct-20 15:53 37.161208 -107.746254 37 6688ft 4kts
26-Oct-20 15:54 37.159505 -107.746050 216 6688ft 59kts
26-Oct-20 15:55 37.136732 -107.776141 258 7561ft 134kts
26-Oct-20 15:56 37.129950 -107.822546 250 8959ft 138kts
26-Oct-20 15:57 37.116158 -107.868732 253 10233ft 144kts
26-Oct-20 15:58 37.103279 -107.917245 254 11404ft 149kts
26-Oct-20 15:59 37.088265 -107.966415 249 12488ft 153kts
26-Oct-20 16:00 37.072865 -108.016750 243 13472ft 157kts
26-Oct-20 16:01 37.047549 -108.059903 189 14227ft 170kts
26-Oct-20 16:02 37.002065 -108.070022 186 14984ft 178kts
26-Oct-20 16:03 36.947566 -108.076791 184 14989ft 211kts
26-Oct-20 16:04 36.886903 -108.083558 184 14983ft 224kts
26-Oct-20 16:06 36.824034 -108.090546 184 14981ft 229kts
26-Oct-20 16:07 36.760405 -108.097385 177 14977ft 230kts
26-Oct-20 16:08 36.703609 -108.063894 147 14981ft 228kts
26-Oct-20 16:09 36.649585 -108.022744 146 14981ft 228kts
26-Oct-20 16:10 36.595478 -107.981196 146 14981ft 228kts
26-Oct-20 16:11 36.541358 -107.939641 146 14981ft 229kts
26-Oct-20 16:12 36.487197 -107.898127 146 14981ft 229kts
26-Oct-20 16:13 36.433167 -107.856784 146 14981ft 229kts
26-Oct-20 16:14 36.378914 -107.815341 146 14982ft 229kts
26-Oct-20 16:15 36.324626 -107.773932 146 14981ft 229kts
26-Oct-20 16:16 36.270297 -107.732568 146 14982ft 229kts
26-Oct-20 16:17 36.216114 -107.691380 146 14982ft 229kts
26-Oct-20 16:18 36.161566 -107.649986 146 14954ft 230kts
26-Oct-20 16:19 36.107010 -107.608650 146 14955ft 229kts
26-Oct-20 16:20 36.052632 -107.567519 146 14954ft 229kts
26-Oct-20 16:20 36.007307 -107.533300 146 14955ft 229kts
26-Oct-20 16:22 35.943678 -107.485313 146 14955ft 229kts
26-Oct-20 16:23 35.889153 -107.444277 146 14953ft 230kts
26-Oct-20 16:24 35.834617 -107.403293 146 14953ft 229kts
26-Oct-20 16:25 35.780113 -107.362403 146 14953ft 229kts
26-Oct-20 16:25 35.734834 -107.328484 147 14953ft 229kts
26-Oct-20 16:27 35.671136 -107.280861 147 14953ft 229kts
26-Oct-20 16:27 35.625772 -107.246980 147 14954ft 229kts
26-Oct-20 16:29 35.562142 -107.199547 147 14953ft 230kts
26-Oct-20 16:29 35.516415 -107.165500 147 14912ft 231kts
26-Oct-20 16:30 35.462789 -107.124232 141 14909ft 230kts
26-Oct-20 16:31 35.412819 -107.076511 140 14172ft 222kts
26-Oct-20 16:32 35.364995 -107.030523 140 13167ft 216kts
26-Oct-20 16:33 35.318157 -106.985519 140 12168ft 213kts
26-Oct-20 16:34 35.271691 -106.940968 140 11169ft 212kts
26-Oct-20 16:35 35.225215 -106.896454 141 10173ft 213kts
26-Oct-20 16:36 35.178394 -106.851679 141 9178ft 214kts
26-Oct-20 16:37 35.129450 -106.816724 161 8575ft 202kts
26-Oct-20 16:38 35.076621 -106.794347 151 7879ft 192kts
26-Oct-20 16:39 35.047987 -106.746775 115 7182ft 163kts
26-Oct-20 16:40 35.044261 -106.698055 95 6827ft 136kts
26-Oct-20 16:41 35.044547 -106.656622 89 5993ft 107kts
26-Oct-20 16:42 35.044333 -106.618208 91 5382ft 113kts
26-Oct-20 16:43 35.044162 -106.599004 101 5319ft 28kts
26-Oct-20 16:44 35.043107 -106.596218 132 5322ft 0kts
26-Oct-20 16:45 35.042562 -106.597729 270 5320ft 16kts
26-Oct-20 16:46 35.042441 -106.604959 259 5315ft 23kts
26-Oct-20 16:47 35.042404 -106.613211 266 5312ft 22kts
26-Oct-20 16:48 35.036840 -106.615143 224 5311ft 24kts
26-Oct-20 16:49 35.035670 -106.618756 261 5308ft 0kts
26-Oct-20 16:50 35.035670 -106.618756 261 5308ft 0kts
26-Oct-20 16:51 35.035670 -106.618756 261 5308ft 0kts
26-Oct-20 16:52 35.035670 -106.618756 261 5308ft 0kts
26-Oct-20 16:53 35.035670 -106.618756 261 5308ft 0kts
26-Oct-20 16:54 35.035670 -106.618756 261 5308ft 0kts
26-Oct-20 16:55 35.035670 -106.618756 261 5308ft 0kts
26-Oct-20 16:56 35.035670 -106.618756 261 5308ft 0kts

Navigation Log

Ident Type
Flight plan parsing failed, navigation log unavailable